Terminal Aerodrome Forecast
Issued by NWS

Home | Current Version | Previous Version | Text Only | Print | Product List | Glossary On
Versions: 1 2 3 4 5 6 7 8 9 10 11 12 13 14 15 16 17 18 19 20 21 22 23 24 25 26
000
FTUS46 KMTR 291100 RRA
TAFSFO
TAF
KSFO 291145Z 2912/3018 29004KT P6SM FEW015 SCT020
      TEMPO 2912/2916 BKN020
     FM291600 30007KT P6SM SCT020
      TEMPO 2916/2918 BKN020
     FM292100 29012KT P6SM FEW020
     FM300400 29006KT P6SM SCT015
     FM300700 29005KT P6SM BKN015=

USA.gov is the U.S. government's official web portal to all federal, state and local government web resources and services.